createdAt,value
2023-04-11T00:00:25.397Z,24.16
2023-04-11T00:02:54.896Z,24.14
2023-04-11T00:05:22.565Z,24.13
2023-04-11T00:07:50.751Z,24.13
2023-04-11T00:10:18.472Z,24.11
2023-04-11T00:12:46.344Z,24.11
2023-04-11T00:15:16.188Z,24.11
2023-04-11T00:17:45.781Z,24.09
2023-04-11T00:20:14.082Z,24.20
2023-04-11T00:22:42.098Z,24.12
2023-04-11T00:25:09.917Z,24.09
2023-04-11T00:27:37.379Z,24.06
2023-04-11T00:30:07.968Z,24.04
2023-04-11T00:32:35.809Z,24.03
2023-04-11T00:35:03.385Z,24.04
2023-04-11T00:37:35.982Z,24.05
2023-04-11T00:40:05.853Z,24.03
2023-04-11T00:42:33.757Z,24.03
2023-04-11T00:45:01.257Z,24.04
2023-04-11T00:47:29.040Z,24.04
2023-04-11T00:49:56.542Z,24.03
2023-04-11T00:52:24.301Z,24.01
2023-04-11T00:54:52.057Z,24.01
2023-04-11T00:57:19.519Z,23.99
2023-04-11T00:59:51.130Z,23.99
2023-04-11T01:02:19.043Z,23.98
2023-04-11T01:04:46.614Z,23.98
2023-04-11T01:07:14.108Z,23.97
2023-04-11T01:09:41.845Z,23.97
2023-04-11T01:12:09.410Z,23.97
2023-04-11T01:14:36.872Z,23.96
2023-04-11T01:17:04.704Z,23.95
2023-04-11T01:19:32.575Z,23.95
2023-04-11T01:22:01.085Z,23.93
2023-04-11T01:24:28.957Z,23.93
2023-04-11T01:26:57.165Z,23.93
2023-04-11T01:29:24.800Z,23.93
2023-04-11T01:31:52.568Z,23.90
2023-04-11T01:34:20.047Z,23.91
2023-04-11T01:36:48.461Z,23.91
2023-04-11T01:39:16.154Z,23.90
2023-04-11T01:41:43.672Z,23.90
2023-04-11T01:44:11.192Z,23.88
2023-04-11T01:46:38.959Z,23.87
2023-04-11T01:49:06.484Z,23.88
2023-04-11T01:51:34.065Z,23.87
2023-04-11T01:54:01.848Z,23.87
2023-04-11T01:56:29.309Z,23.86
2023-04-11T01:58:59.167Z,23.86
2023-04-11T02:01:27.897Z,23.86
2023-04-11T02:03:55.739Z,23.84
2023-04-11T02:06:23.238Z,23.83
2023-04-11T02:08:51.471Z,23.83
2023-04-11T02:11:19.204Z,23.83
2023-04-11T02:13:49.843Z,23.82
2023-04-11T02:16:18.089Z,23.82
2023-04-11T02:18:46.409Z,23.81
2023-04-11T02:21:13.994Z,23.81
2023-04-11T02:23:41.423Z,23.81
2023-04-11T02:26:09.251Z,23.80
2023-04-11T02:28:36.836Z,23.81
2023-04-11T02:31:05.911Z,23.81
2023-04-11T02:33:33.690Z,23.80
2023-04-11T02:36:01.180Z,23.81
2023-04-11T02:38:28.654Z,23.79
2023-04-11T02:40:56.342Z,23.80
2023-04-11T02:43:23.769Z,23.80
2023-04-11T02:45:54.289Z,23.79
2023-04-11T02:48:27.383Z,23.79
2023-04-11T02:50:54.826Z,23.79
2023-04-11T02:53:24.011Z,23.78
2023-04-11T02:55:51.794Z,23.78
2023-04-11T02:58:20.176Z,23.78
2023-04-11T03:00:49.277Z,23.77
2023-04-11T03:03:17.289Z,23.76
2023-04-11T03:05:45.239Z,23.78
2023-04-11T03:08:13.429Z,23.75
2023-04-11T03:10:41.858Z,23.75
2023-04-11T03:13:10.016Z,23.74
2023-04-11T03:15:37.627Z,23.74
2023-04-11T03:18:05.991Z,23.74
2023-04-11T03:20:33.735Z,23.73
2023-04-11T03:23:01.315Z,23.72
2023-04-11T03:25:29.674Z,23.73
2023-04-11T03:27:57.672Z,23.72
2023-04-11T03:30:25.243Z,23.71
2023-04-11T03:32:53.174Z,23.71
2023-04-11T03:35:20.913Z,23.71
2023-04-11T03:37:49.283Z,23.70
2023-04-11T03:40:18.702Z,23.68
2023-04-11T03:42:46.751Z,23.70
2023-04-11T03:45:14.771Z,23.69
2023-04-11T03:47:42.807Z,23.67
2023-04-11T03:50:11.567Z,23.66
2023-04-11T03:52:39.814Z,23.66
2023-04-11T03:55:09.756Z,23.66
2023-04-11T03:57:37.271Z,23.66
2023-04-11T04:00:06.465Z,23.66
2023-04-11T04:02:42.528Z,23.65
2023-04-11T04:05:11.564Z,23.64
2023-04-11T04:07:39.716Z,23.65
2023-04-11T04:10:08.130Z,23.64
2023-04-11T04:12:35.980Z,23.62
2023-04-11T04:15:04.287Z,23.61
2023-04-11T04:17:31.890Z,23.60
2023-04-11T04:20:05.927Z,23.60
2023-04-11T04:22:36.023Z,23.60
2023-04-11T04:25:04.116Z,23.61
2023-04-11T04:27:32.401Z,23.60
2023-04-11T04:30:04.200Z,23.60
2023-04-11T04:32:33.047Z,23.59
2023-04-11T04:35:01.631Z,23.60
2023-04-11T04:37:29.376Z,23.61
2023-04-11T04:40:02.099Z,23.60
2023-04-11T04:42:31.106Z,23.60
2023-04-11T04:45:00.855Z,23.60
2023-04-11T04:47:33.633Z,23.60
2023-04-11T04:50:01.451Z,23.58
2023-04-11T04:52:29.345Z,23.57
2023-04-11T04:55:01.274Z,23.57
2023-04-11T04:57:29.541Z,23.57
2023-04-11T04:59:57.249Z,23.57
2023-04-11T05:02:27.804Z,23.58
2023-04-11T05:04:58.135Z,23.57
2023-04-11T05:07:26.530Z,23.57
2023-04-11T05:09:54.883Z,23.58
2023-04-11T05:12:27.016Z,23.57
2023-04-11T05:14:56.760Z,23.56
2023-04-11T05:17:26.257Z,23.56
2023-04-11T05:19:54.399Z,23.57
2023-04-11T05:22:21.947Z,23.56
2023-04-11T05:24:50.192Z,23.55
2023-04-11T05:27:18.663Z,23.56
2023-04-11T05:29:46.581Z,23.56
2023-04-11T05:32:14.775Z,23.56
2023-04-11T05:34:55.185Z,23.56
2023-04-11T05:37:25.193Z,23.56
2023-04-11T05:39:53.099Z,23.56
2023-04-11T05:42:22.031Z,23.54
2023-04-11T05:44:49.750Z,23.54
2023-04-11T05:47:17.220Z,23.54
2023-04-11T05:49:44.705Z,23.54
2023-04-11T05:52:12.451Z,23.53
2023-04-11T05:54:39.881Z,23.54
2023-04-11T05:57:07.745Z,23.52
2023-04-11T05:59:36.113Z,23.54
2023-04-11T06:02:03.983Z,23.54
2023-04-11T06:04:32.066Z,23.53
2023-04-11T06:06:59.707Z,23.53
2023-04-11T06:09:27.512Z,23.52
2023-04-11T06:11:55.255Z,23.53
2023-04-11T06:14:22.764Z,23.52
2023-04-11T06:16:50.272Z,23.53
2023-04-11T06:19:18.095Z,23.53
2023-04-11T06:21:45.800Z,23.52
2023-04-11T06:24:13.188Z,23.52
2023-04-11T06:26:41.251Z,23.51
2023-04-11T06:29:08.700Z,23.52
2023-04-11T06:31:36.389Z,23.52
2023-04-11T06:34:04.142Z,23.52
2023-04-11T06:36:32.641Z,23.53
2023-04-11T06:39:00.339Z,23.50
2023-04-11T06:41:28.094Z,23.50
2023-04-11T06:43:55.909Z,23.50
2023-04-11T06:46:23.610Z,23.50
2023-04-11T06:48:51.441Z,23.51
2023-04-11T06:51:18.983Z,23.51
2023-04-11T06:53:46.584Z,23.49
2023-04-11T06:56:14.344Z,23.50
2023-04-11T06:58:41.862Z,23.50
2023-04-11T07:01:09.494Z,23.50
2023-04-11T07:03:38.137Z,23.50
2023-04-11T07:06:07.377Z,23.50
2023-04-11T07:08:34.828Z,23.50
2023-04-11T07:11:03.177Z,23.53
2023-04-11T07:13:30.674Z,23.56
2023-04-11T07:15:58.235Z,23.57
2023-04-11T07:18:28.764Z,23.56
2023-04-11T07:20:56.272Z,23.57
2023-04-11T07:23:24.091Z,23.58
2023-04-11T07:25:51.798Z,23.57
2023-04-11T07:28:19.252Z,23.58
2023-04-11T07:30:46.879Z,23.57
2023-04-11T07:33:14.573Z,23.56
2023-04-11T07:35:42.013Z,23.57
2023-04-11T07:38:10.639Z,23.57
2023-04-11T07:40:40.450Z,23.58
2023-04-11T07:43:07.978Z,23.58
2023-04-11T07:45:36.530Z,23.64
2023-04-11T07:48:04.485Z,23.65
2023-04-11T07:50:31.991Z,23.64
2023-04-11T07:52:59.435Z,23.65
2023-04-11T07:55:27.200Z,23.65
2023-04-11T07:57:54.904Z,23.67
2023-04-11T08:00:22.917Z,23.70
2023-04-11T08:02:51.947Z,23.69
2023-04-11T08:05:19.698Z,23.68
2023-04-11T08:07:47.311Z,23.68
2023-04-11T08:10:15.169Z,23.68
2023-04-11T08:12:42.603Z,23.68
2023-04-11T08:15:10.733Z,23.70
2023-04-11T08:17:39.029Z,23.70
2023-04-11T08:20:09.344Z,23.71
2023-04-11T08:22:36.950Z,23.71
2023-04-11T08:25:06.018Z,23.73
2023-04-11T08:27:33.503Z,23.73
2023-04-11T08:30:01.545Z,23.73
2023-04-11T08:32:29.300Z,23.74
2023-04-11T08:34:56.724Z,23.74
2023-04-11T08:37:24.164Z,23.75
2023-04-11T08:39:51.860Z,23.76
2023-04-11T08:42:29.693Z,23.77
2023-04-11T08:44:59.088Z,23.80
2023-04-11T08:47:26.770Z,23.78
2023-04-11T08:49:54.281Z,23.80
2023-04-11T08:52:24.143Z,23.80
2023-04-11T08:54:55.130Z,23.80
2023-04-11T08:57:35.079Z,23.78
2023-04-11T09:00:22.814Z,23.78
2023-04-11T09:02:56.866Z,23.78
2023-04-11T09:05:31.852Z,23.79
2023-04-11T09:08:03.397Z,23.79
2023-04-11T09:10:30.847Z,23.77
2023-04-11T09:12:58.416Z,23.77
2023-04-11T09:15:30.127Z,23.77
2023-04-11T09:18:00.529Z,23.77
2023-04-11T09:20:32.265Z,23.77
2023-04-11T09:22:59.812Z,23.77
2023-04-11T09:25:27.560Z,23.78
2023-04-11T09:28:09.051Z,23.78
2023-04-11T09:30:37.097Z,23.80
2023-04-11T09:33:23.848Z,23.80
2023-04-11T09:35:52.912Z,23.82
2023-04-11T09:38:34.469Z,23.81
2023-04-11T09:41:03.572Z,23.84
2023-04-11T09:43:51.482Z,23.83
2023-04-11T09:46:20.797Z,23.87
2023-04-11T09:48:49.241Z,23.84
2023-04-11T09:51:28.112Z,23.85
2023-04-11T09:54:03.595Z,23.85
2023-04-11T09:56:31.408Z,23.87
2023-04-11T09:58:59.978Z,23.86
2023-04-11T10:01:28.191Z,23.87
2023-04-11T10:03:56.745Z,23.87
2023-04-11T10:06:38.688Z,23.86
2023-04-11T10:09:11.191Z,23.86
2023-04-11T10:11:43.107Z,23.85
2023-04-11T10:14:39.021Z,23.85
2023-04-11T10:17:22.152Z,23.87
2023-04-11T10:19:56.479Z,23.85
2023-04-11T10:22:46.458Z,23.83
2023-04-11T10:25:21.127Z,23.85
2023-04-11T10:28:00.826Z,23.82
2023-04-11T10:30:41.075Z,23.82
2023-04-11T10:33:11.986Z,23.82
2023-04-11T10:35:59.457Z,23.80
2023-04-11T10:38:49.209Z,23.81
2023-04-11T10:41:27.666Z,23.80
2023-04-11T10:44:14.764Z,23.78
2023-04-11T10:46:50.780Z,23.78
2023-04-11T10:49:37.749Z,23.76
2023-04-11T10:52:22.432Z,23.77
2023-04-11T10:54:51.269Z,23.77
2023-04-11T10:57:19.103Z,23.73
2023-04-11T10:59:49.416Z,23.73
2023-04-11T11:02:17.044Z,23.72
2023-04-11T11:04:45.004Z,23.72
2023-04-11T11:07:13.351Z,23.71
2023-04-11T11:09:40.827Z,23.71
2023-04-11T11:12:15.713Z,23.70
2023-04-11T11:14:44.840Z,23.70
2023-04-11T11:17:13.309Z,23.68
2023-04-11T11:19:47.577Z,23.69
2023-04-11T11:22:16.059Z,23.68
2023-04-11T11:24:43.502Z,23.67
2023-04-11T11:27:22.908Z,23.66
2023-04-11T11:29:51.135Z,23.67
2023-04-11T11:32:22.817Z,23.65
2023-04-11T11:34:53.061Z,23.64
2023-04-11T11:37:21.589Z,23.62
2023-04-11T11:39:49.213Z,23.62
2023-04-11T11:42:16.623Z,23.61
2023-04-11T11:44:44.418Z,23.61
2023-04-11T11:47:15.112Z,23.62
2023-04-11T11:50:02.886Z,23.61
2023-04-11T11:52:34.413Z,23.62
2023-04-11T11:55:08.813Z,23.60
2023-04-11T11:57:38.620Z,23.59
2023-04-11T12:00:09.265Z,23.60
2023-04-11T12:02:38.268Z,23.59
2023-04-11T12:05:06.733Z,23.59
2023-04-11T12:07:36.186Z,23.58
2023-04-11T12:10:09.096Z,23.58
2023-04-11T12:12:37.778Z,23.58
2023-04-11T12:15:11.784Z,23.57
2023-04-11T12:17:39.517Z,23.57
2023-04-11T12:20:08.251Z,23.56
2023-04-11T12:22:36.124Z,23.56
2023-04-11T12:25:05.782Z,23.56
2023-04-11T12:27:34.940Z,23.55
2023-04-11T12:30:02.620Z,23.56
2023-04-11T12:32:33.850Z,23.55
2023-04-11T12:35:02.794Z,23.53
2023-04-11T12:37:31.111Z,23.53
2023-04-11T12:39:58.683Z,23.53
2023-04-11T12:42:27.398Z,23.54
2023-04-11T12:44:55.106Z,23.53
2023-04-11T12:47:22.644Z,23.53
2023-04-11T12:49:50.738Z,23.53
2023-04-11T12:52:18.207Z,23.52
2023-04-11T12:54:46.126Z,23.52
2023-04-11T12:57:13.813Z,23.52
2023-04-11T12:59:41.432Z,23.52
2023-04-11T13:02:09.315Z,23.51
2023-04-11T13:04:37.221Z,23.52
2023-04-11T13:07:04.830Z,23.50
2023-04-11T13:09:33.964Z,23.51
2023-04-11T13:12:01.940Z,23.50
2023-04-11T13:14:29.543Z,23.51
2023-04-11T13:16:57.055Z,23.50
2023-04-11T13:19:24.966Z,23.50
2023-04-11T13:21:52.439Z,23.49
2023-04-11T13:24:19.909Z,23.49
2023-04-11T13:26:47.789Z,23.48
2023-04-11T13:29:15.315Z,23.49
2023-04-11T13:31:42.764Z,23.48
2023-04-11T13:34:10.872Z,23.47
2023-04-11T13:36:38.385Z,23.47
2023-04-11T13:39:06.276Z,23.47
2023-04-11T13:41:34.201Z,23.46
2023-04-11T13:44:01.728Z,23.47
2023-04-11T13:46:29.214Z,23.47
2023-04-11T13:48:57.256Z,23.45
2023-04-11T13:51:24.774Z,23.46
2023-04-11T13:53:52.188Z,23.45
2023-04-11T13:56:20.642Z,23.43
2023-04-11T13:58:48.074Z,23.42
2023-04-11T14:01:15.572Z,23.42
2023-04-11T14:03:44.683Z,23.41
2023-04-11T14:06:12.293Z,23.41
2023-04-11T14:08:39.823Z,23.40
2023-04-11T14:11:07.702Z,23.39
2023-04-11T14:13:35.143Z,23.39
2023-04-11T14:16:09.024Z,23.39
2023-04-11T14:18:37.272Z,23.39
2023-04-11T14:21:08.314Z,23.38
2023-04-11T14:23:36.837Z,23.37
2023-04-11T14:26:05.340Z,23.36
2023-04-11T14:28:32.809Z,23.36
2023-04-11T14:31:00.469Z,23.36
2023-04-11T14:33:28.230Z,23.35
2023-04-11T14:35:55.982Z,23.35
2023-04-11T14:38:23.421Z,23.36
2023-04-11T14:40:51.377Z,23.36
2023-04-11T14:43:19.507Z,23.37
2023-04-11T14:45:47.665Z,23.36
2023-04-11T14:48:16.017Z,23.36
2023-04-11T14:50:43.455Z,23.36
2023-04-11T14:53:11.161Z,23.36
2023-04-11T14:55:39.796Z,23.36
2023-04-11T14:58:07.354Z,23.36
2023-04-11T15:00:35.301Z,23.38
2023-04-11T15:03:03.408Z,23.37
2023-04-11T15:05:30.944Z,23.37
2023-04-11T15:07:58.432Z,23.37
2023-04-11T15:10:26.504Z,23.36
2023-04-11T15:12:53.939Z,23.36
2023-04-11T15:15:21.392Z,23.38
2023-04-11T15:17:49.905Z,23.37
2023-04-11T15:20:17.460Z,23.38
2023-04-11T15:22:45.563Z,23.39
2023-04-11T15:25:16.788Z,23.39
2023-04-11T15:27:44.246Z,23.41
2023-04-11T15:30:12.165Z,23.39
2023-04-11T15:32:42.628Z,23.39
2023-04-11T15:35:10.324Z,23.38
2023-04-11T15:37:37.743Z,23.39
2023-04-11T15:40:06.406Z,23.39
2023-04-11T15:42:35.598Z,23.39
2023-04-11T15:45:03.689Z,23.39
2023-04-11T15:47:31.570Z,23.39
2023-04-11T15:50:01.996Z,23.39
2023-04-11T15:52:29.518Z,23.37
2023-04-11T15:54:57.388Z,23.37
2023-04-11T15:57:26.214Z,23.37
2023-04-11T15:59:53.666Z,23.37
2023-04-11T16:02:21.598Z,23.37
2023-04-11T16:04:52.869Z,23.37
2023-04-11T16:07:25.011Z,23.38
2023-04-11T16:09:52.730Z,23.38
2023-04-11T16:12:20.275Z,23.37
2023-04-11T16:14:47.720Z,23.37
2023-04-11T16:17:15.675Z,23.37
2023-04-11T16:19:43.162Z,23.38
2023-04-11T16:22:10.843Z,23.38
2023-04-11T16:24:38.732Z,23.37
2023-04-11T16:27:06.210Z,23.37
2023-04-11T16:29:33.692Z,23.37
2023-04-11T16:32:01.492Z,23.37
2023-04-11T16:34:28.919Z,23.37
2023-04-11T16:36:56.771Z,23.38
2023-04-11T16:39:25.522Z,23.38
2023-04-11T16:41:54.972Z,23.37
2023-04-11T16:44:25.494Z,23.37
2023-04-11T16:46:53.569Z,23.40
2023-04-11T16:49:21.242Z,23.44
2023-04-11T16:51:48.806Z,23.43
2023-04-11T16:54:17.096Z,23.47
2023-04-11T16:56:44.622Z,23.56
2023-04-11T16:59:12.370Z,23.66
2023-04-11T17:01:41.684Z,23.79
2023-04-11T17:04:09.444Z,23.89
2023-04-11T17:06:37.164Z,24.02
2023-04-11T17:09:07.869Z,24.11
2023-04-11T17:11:37.808Z,24.22
2023-04-11T17:14:05.688Z,24.33
2023-04-11T17:16:33.169Z,24.44
2023-04-11T17:19:00.853Z,24.51
2023-04-11T17:21:28.567Z,24.58
2023-04-11T17:23:56.011Z,24.67
2023-04-11T17:26:23.624Z,24.76
2023-04-11T17:28:51.856Z,24.85
2023-04-11T17:31:19.742Z,24.94
2023-04-11T17:33:47.274Z,25.05
2023-04-11T17:36:15.035Z,25.13
2023-04-11T17:38:43.462Z,25.22
2023-04-11T17:41:14.883Z,25.30
2023-04-11T17:43:43.911Z,25.37
2023-04-11T17:46:12.466Z,25.46
2023-04-11T17:48:40.267Z,25.53
2023-04-11T17:51:08.040Z,25.61
2023-04-11T17:53:35.713Z,25.65
2023-04-11T17:56:05.522Z,25.73
2023-04-11T17:58:33.854Z,25.78
2023-04-11T18:01:03.854Z,25.84
2023-04-11T18:03:35.146Z,25.90
2023-04-11T18:06:03.437Z,25.96
2023-04-11T18:08:49.093Z,26.05
2023-04-11T18:11:17.872Z,26.10
2023-04-11T18:13:48.322Z,26.16
2023-04-11T18:16:17.975Z,26.19
2023-04-11T18:18:47.171Z,26.23
2023-04-11T18:21:16.185Z,26.25
2023-04-11T18:23:45.420Z,26.27
2023-04-11T18:26:13.246Z,26.28
2023-04-11T18:28:41.087Z,26.30
2023-04-11T18:31:10.694Z,26.31
2023-04-11T18:33:42.762Z,26.31
2023-04-11T18:36:26.472Z,26.31
2023-04-11T18:38:55.070Z,26.31
2023-04-11T18:41:23.013Z,26.31
2023-04-11T18:43:54.322Z,26.30
2023-04-11T18:46:22.519Z,26.27
2023-04-11T18:48:50.467Z,26.26
2023-04-11T18:51:19.483Z,26.23
2023-04-11T18:53:49.157Z,26.21
2023-04-11T18:56:17.219Z,26.19
2023-04-11T18:58:50.092Z,26.18
2023-04-11T19:01:21.289Z,26.15
2023-04-11T19:03:50.301Z,26.13
2023-04-11T19:06:19.600Z,26.12
2023-04-11T19:08:48.270Z,26.10
2023-04-11T19:11:16.311Z,26.08
2023-04-11T19:13:44.417Z,26.05
2023-04-11T19:16:15.454Z,26.01
2023-04-11T19:18:43.794Z,26.00
2023-04-11T19:21:12.578Z,25.98
2023-04-11T19:23:41.423Z,25.94
2023-04-11T19:26:10.219Z,25.92
2023-04-11T19:28:39.232Z,25.90
2023-04-11T19:31:07.487Z,25.89
2023-04-11T19:33:39.417Z,25.86
2023-04-11T19:36:12.524Z,25.84
2023-04-11T19:38:40.836Z,25.81
2023-04-11T19:41:11.690Z,25.78
2023-04-11T19:43:39.441Z,25.76
2023-04-11T19:46:07.767Z,25.73
2023-04-11T19:48:36.830Z,25.68
2023-04-11T19:51:06.905Z,25.67
2023-04-11T19:53:35.584Z,25.65
2023-04-11T19:56:04.636Z,25.63
2023-04-11T19:58:36.974Z,25.60
2023-04-11T20:01:07.006Z,25.57
2023-04-11T20:03:35.658Z,25.56
2023-04-11T20:06:08.043Z,25.63
2023-04-11T20:08:47.525Z,25.55
2023-04-11T20:11:17.944Z,25.49
2023-04-11T20:13:46.882Z,25.45
2023-04-11T20:16:14.782Z,25.42
2023-04-11T20:18:42.727Z,25.40
2023-04-11T20:21:12.311Z,25.38
2023-04-11T20:23:41.122Z,25.36
2023-04-11T20:26:09.519Z,25.33
2023-04-11T20:28:38.138Z,25.34
2023-04-11T20:31:06.677Z,25.30
2023-04-11T20:33:34.198Z,25.29
2023-04-11T20:36:03.344Z,25.27
2023-04-11T20:38:31.378Z,25.25
2023-04-11T20:40:58.814Z,25.23
2023-04-11T20:43:26.778Z,25.22
2023-04-11T20:45:54.241Z,25.21
2023-04-11T20:48:21.775Z,25.17
2023-04-11T20:50:50.015Z,25.16
2023-04-11T20:53:17.557Z,25.13
2023-04-11T20:55:45.005Z,25.15
2023-04-11T20:58:17.051Z,25.18
2023-04-11T21:00:44.581Z,25.28
2023-04-11T21:03:12.445Z,25.37
2023-04-11T21:05:44.282Z,25.45
2023-04-11T21:08:12.057Z,25.54
2023-04-11T21:10:39.963Z,25.63
2023-04-11T21:13:07.401Z,25.73
2023-04-11T21:15:34.998Z,25.81
2023-04-11T21:18:04.869Z,25.84
2023-04-11T21:20:33.582Z,25.86
2023-04-11T21:23:02.689Z,25.90
2023-04-11T21:25:31.486Z,25.92
2023-04-11T21:27:58.986Z,25.97
2023-04-11T21:30:26.418Z,26.00
2023-04-11T21:32:54.207Z,26.02
2023-04-11T21:35:21.621Z,26.03
2023-04-11T21:37:49.319Z,26.04
2023-04-11T21:40:17.138Z,26.06
2023-04-11T21:42:44.608Z,26.06
2023-04-11T21:45:12.072Z,26.04
2023-04-11T21:47:40.010Z,26.04
2023-04-11T21:50:08.101Z,26.03
2023-04-11T21:52:35.550Z,26.01
2023-04-11T21:55:03.256Z,26.01
2023-04-11T21:57:33.863Z,25.99
2023-04-11T22:00:01.260Z,25.98
2023-04-11T22:02:39.346Z,25.97
2023-04-11T22:05:09.244Z,25.95
2023-04-11T22:07:49.033Z,25.93
2023-04-11T22:10:23.793Z,25.90
2023-04-11T22:12:53.976Z,25.89
2023-04-11T22:15:21.724Z,25.85
2023-04-11T22:17:50.830Z,25.92
2023-04-11T22:20:20.015Z,25.84
2023-04-11T22:22:48.089Z,25.79
2023-04-11T22:25:18.146Z,25.78
2023-04-11T22:27:45.476Z,25.75
2023-04-11T22:30:14.509Z,25.82
2023-04-11T22:32:42.048Z,25.72
2023-04-11T22:35:10.431Z,25.67
2023-04-11T22:37:38.158Z,25.63
2023-04-11T22:40:06.309Z,25.60
2023-04-11T22:42:33.858Z,25.59
2023-04-11T22:45:01.651Z,25.55
2023-04-11T22:47:29.181Z,25.53
2023-04-11T22:49:57.906Z,25.51
2023-04-11T22:52:25.896Z,25.49
2023-04-11T22:54:54.693Z,25.48
2023-04-11T22:57:22.166Z,25.45
2023-04-11T22:59:49.880Z,25.42
2023-04-11T23:02:17.455Z,25.41
2023-04-11T23:04:45.160Z,25.39
2023-04-11T23:07:12.960Z,25.37
2023-04-11T23:09:40.365Z,25.35
2023-04-11T23:12:08.348Z,25.34
2023-04-11T23:14:36.136Z,25.33
2023-04-11T23:17:03.542Z,25.31
2023-04-11T23:19:31.024Z,25.29
2023-04-11T23:21:59.485Z,25.26
2023-04-11T23:24:27.232Z,25.25
2023-04-11T23:26:54.675Z,25.23
2023-04-11T23:29:22.474Z,25.21
2023-04-11T23:31:49.853Z,25.19
2023-04-11T23:34:17.267Z,25.18
2023-04-11T23:36:45.004Z,25.16
2023-04-11T23:39:12.480Z,25.14
2023-04-11T23:41:39.970Z,25.13
2023-04-11T23:44:07.656Z,25.10
2023-04-11T23:46:35.183Z,25.08
2023-04-11T23:49:02.732Z,25.06
2023-04-11T23:51:30.426Z,25.04
2023-04-11T23:53:58.187Z,25.03
2023-04-11T23:56:26.253Z,25.02
2023-04-11T23:58:54.342Z,24.99
